sensor_id;sensor_type;location;lat;lon;timestamp;temperature;humidity
51739;DHT22;37815;52.692;6.226;2022-09-01T00:02:39;20.40;79.50
51739;DHT22;37815;52.692;6.226;2022-09-01T00:07:40;20.40;79.50
51739;DHT22;37815;52.692;6.226;2022-09-01T00:12:41;20.40;79.50
51739;DHT22;37815;52.692;6.226;2022-09-01T00:17:42;20.30;79.60
51739;DHT22;37815;52.692;6.226;2022-09-01T00:22:43;20.30;79.60
51739;DHT22;37815;52.692;6.226;2022-09-01T00:27:44;20.30;79.60
51739;DHT22;37815;52.692;6.226;2022-09-01T00:32:45;20.20;79.50
51739;DHT22;37815;52.692;6.226;2022-09-01T00:37:46;20.20;79.50
51739;DHT22;37815;52.692;6.226;2022-09-01T00:42:47;20.20;79.60
51739;DHT22;37815;52.692;6.226;2022-09-01T00:47:48;20.10;79.50
51739;DHT22;37815;52.692;6.226;2022-09-01T00:52:51;20.10;79.50
51739;DHT22;37815;52.692;6.226;2022-09-01T00:57:53;20.10;79.50
51739;DHT22;37815;52.692;6.226;2022-09-01T01:02:54;20.10;79.50
51739;DHT22;37815;52.692;6.226;2022-09-01T01:07:55;20.00;79.40
51739;DHT22;37815;52.692;6.226;2022-09-01T01:12:56;20.00;79.40
51739;DHT22;37815;52.692;6.226;2022-09-01T01:18:00;20.00;79.40
51739;DHT22;37815;52.692;6.226;2022-09-01T01:28:19;19.90;79.50
51739;DHT22;37815;52.692;6.226;2022-09-01T01:33:25;19.90;79.40
51739;DHT22;37815;52.692;6.226;2022-09-01T01:38:26;19.90;79.40
51739;DHT22;37815;52.692;6.226;2022-09-01T01:43:29;19.80;79.30
51739;DHT22;37815;52.692;6.226;2022-09-01T01:48:30;19.80;79.30
51739;DHT22;37815;52.692;6.226;2022-09-01T01:53:34;19.80;79.30
51739;DHT22;37815;52.692;6.226;2022-09-01T01:58:34;19.80;79.30
51739;DHT22;37815;52.692;6.226;2022-09-01T02:03:35;19.70;79.20
51739;DHT22;37815;52.692;6.226;2022-09-01T02:08:38;19.70;79.20
51739;DHT22;37815;52.692;6.226;2022-09-01T02:13:40;19.70;79.20
51739;DHT22;37815;52.692;6.226;2022-09-01T02:18:44;19.60;79.10
51739;DHT22;37815;52.692;6.226;2022-09-01T02:23:51;19.60;79.10
51739;DHT22;37815;52.692;6.226;2022-09-01T02:29:05;19.60;79.10
51739;DHT22;37815;52.692;6.226;2022-09-01T02:34:07;19.60;79.10
51739;DHT22;37815;52.692;6.226;2022-09-01T02:39:10;19.50;79.00
51739;DHT22;37815;52.692;6.226;2022-09-01T02:44:11;19.50;79.00
51739;DHT22;37815;52.692;6.226;2022-09-01T02:49:18;19.50;79.00
51739;DHT22;37815;52.692;6.226;2022-09-01T02:54:24;19.50;78.90
51739;DHT22;37815;52.692;6.226;2022-09-01T02:59:27;19.40;78.90
51739;DHT22;37815;52.692;6.226;2022-09-01T03:04:28;19.40;78.90
51739;DHT22;37815;52.692;6.226;2022-09-01T03:09:33;19.40;78.90
51739;DHT22;37815;52.692;6.226;2022-09-01T03:14:34;19.30;78.80
51739;DHT22;37815;52.692;6.226;2022-09-01T03:19:35;19.30;78.80
51739;DHT22;37815;52.692;6.226;2022-09-01T03:24:44;19.30;78.80
51739;DHT22;37815;52.692;6.226;2022-09-01T03:29:45;19.30;78.80
51739;DHT22;37815;52.692;6.226;2022-09-01T03:34:45;19.20;78.70
51739;DHT22;37815;52.692;6.226;2022-09-01T03:39:46;19.20;78.70
51739;DHT22;37815;52.692;6.226;2022-09-01T03:44:47;19.20;78.70
51739;DHT22;37815;52.692;6.226;2022-09-01T03:49:50;19.20;78.80
51739;DHT22;37815;52.692;6.226;2022-09-01T03:54:51;19.20;78.70
51739;DHT22;37815;52.692;6.226;2022-09-01T03:59:53;19.10;78.70
51739;DHT22;37815;52.692;6.226;2022-09-01T04:04:53;19.10;78.60
51739;DHT22;37815;52.692;6.226;2022-09-01T04:09:54;19.10;78.60
51739;DHT22;37815;52.692;6.226;2022-09-01T04:14:55;19.00;78.60
51739;DHT22;37815;52.692;6.226;2022-09-01T04:19:56;19.00;78.60
51739;DHT22;37815;52.692;6.226;2022-09-01T04:24:57;19.00;78.60
51739;DHT22;37815;52.692;6.226;2022-09-01T04:29:59;19.00;78.60
51739;DHT22;37815;52.692;6.226;2022-09-01T04:35:00;18.90;78.50
51739;DHT22;37815;52.692;6.226;2022-09-01T04:40:03;18.90;78.50
51739;DHT22;37815;52.692;6.226;2022-09-01T04:45:04;18.90;78.50
51739;DHT22;37815;52.692;6.226;2022-09-01T04:50:06;18.90;78.50
51739;DHT22;37815;52.692;6.226;2022-09-01T04:55:14;18.80;78.50
51739;DHT22;37815;52.692;6.226;2022-09-01T05:00:20;18.80;78.50
51739;DHT22;37815;52.692;6.226;2022-09-01T05:05:24;18.80;78.50
51739;DHT22;37815;52.692;6.226;2022-09-01T05:10:29;18.80;78.50
51739;DHT22;37815;52.692;6.226;2022-09-01T05:15:31;18.60;78.30
51739;DHT22;37815;52.692;6.226;2022-09-01T05:20:32;18.80;78.40
51739;DHT22;37815;52.692;6.226;2022-09-01T05:25:38;18.70;78.30
51739;DHT22;37815;52.692;6.226;2022-09-01T05:30:41;18.70;78.30
51739;DHT22;37815;52.692;6.226;2022-09-01T05:35:52;18.70;78.40
51739;DHT22;37815;52.692;6.226;2022-09-01T05:41:00;18.70;78.30
51739;DHT22;37815;52.692;6.226;2022-09-01T05:46:07;18.70;78.30
51739;DHT22;37815;52.692;6.226;2022-09-01T05:51:09;18.70;78.30
51739;DHT22;37815;52.692;6.226;2022-09-01T05:56:10;18.70;78.30
51739;DHT22;37815;52.692;6.226;2022-09-01T06:01:26;18.70;78.30
51739;DHT22;37815;52.692;6.226;2022-09-01T06:06:29;18.70;78.20
51739;DHT22;37815;52.692;6.226;2022-09-01T06:11:35;18.70;78.20
51739;DHT22;37815;52.692;6.226;2022-09-01T06:16:36;18.60;78.20
51739;DHT22;37815;52.692;6.226;2022-09-01T06:21:38;18.60;78.20
51739;DHT22;37815;52.692;6.226;2022-09-01T06:26:40;18.60;78.20
51739;DHT22;37815;52.692;6.226;2022-09-01T06:31:42;18.60;78.20
51739;DHT22;37815;52.692;6.226;2022-09-01T06:36:47;18.60;78.20
51739;DHT22;37815;52.692;6.226;2022-09-01T06:41:50;18.60;78.20
51739;DHT22;37815;52.692;6.226;2022-09-01T06:46:52;18.60;78.10
51739;DHT22;37815;52.692;6.226;2022-09-01T06:51:53;18.70;78.20
51739;DHT22;37815;52.692;6.226;2022-09-01T06:56:54;18.70;78.20
51739;DHT22;37815;52.692;6.226;2022-09-01T07:01:54;18.70;78.20
51739;DHT22;37815;52.692;6.226;2022-09-01T07:06:57;18.70;78.80
51739;DHT22;37815;52.692;6.226;2022-09-01T07:11:58;18.70;78.20
51739;DHT22;37815;52.692;6.226;2022-09-01T07:16:59;18.80;78.30
51739;DHT22;37815;52.692;6.226;2022-09-01T07:22:00;18.80;78.30
51739;DHT22;37815;52.692;6.226;2022-09-01T07:27:00;18.90;78.30
51739;DHT22;37815;52.692;6.226;2022-09-01T07:32:01;18.90;78.30
51739;DHT22;37815;52.692;6.226;2022-09-01T07:37:02;19.00;78.20
51739;DHT22;37815;52.692;6.226;2022-09-01T07:42:03;19.00;78.20
51739;DHT22;37815;52.692;6.226;2022-09-01T07:47:10;19.10;78.30
51739;DHT22;37815;52.692;6.226;2022-09-01T07:52:14;19.10;78.20
51739;DHT22;37815;52.692;6.226;2022-09-01T07:57:15;19.20;78.20
51739;DHT22;37815;52.692;6.226;2022-09-01T08:02:15;19.20;78.20
51739;DHT22;37815;52.692;6.226;2022-09-01T08:07:17;19.20;78.20
51739;DHT22;37815;52.692;6.226;2022-09-01T08:12:18;19.30;78.20
51739;DHT22;37815;52.692;6.226;2022-09-01T08:17:19;19.20;78.60
51739;DHT22;37815;52.692;6.226;2022-09-01T08:22:20;19.00;79.50
51739;DHT22;37815;52.692;6.226;2022-09-01T08:27:23;18.90;80.10
51739;DHT22;37815;52.692;6.226;2022-09-01T08:32:24;18.90;80.40
51739;DHT22;37815;52.692;6.226;2022-09-01T08:37:25;18.90;80.50
51739;DHT22;37815;52.692;6.226;2022-09-01T08:47:42;19.10;81.50
51739;DHT22;37815;52.692;6.226;2022-09-01T08:53:03;19.20;80.60
51739;DHT22;37815;52.692;6.226;2022-09-01T08:58:09;19.30;80.90
51739;DHT22;37815;52.692;6.226;2022-09-01T09:19:12;19.70;79.50
51739;DHT22;37815;52.692;6.226;2022-09-01T09:24:33;19.80;79.00
51739;DHT22;37815;52.692;6.226;2022-09-01T09:29:53;19.80;78.40
51739;DHT22;37815;52.692;6.226;2022-09-01T09:34:54;19.90;78.00
51739;DHT22;37815;52.692;6.226;2022-09-01T09:40:09;20.00;77.70
51739;DHT22;37815;52.692;6.226;2022-09-01T09:45:35;20.00;77.60
51739;DHT22;37815;52.692;6.226;2022-09-01T09:50:38;20.10;76.70
51739;DHT22;37815;52.692;6.226;2022-09-01T10:01:03;20.30;77.10
51739;DHT22;37815;52.692;6.226;2022-09-01T10:06:09;20.40;76.20
51739;DHT22;37815;52.692;6.226;2022-09-01T10:11:48;20.50;75.60
51739;DHT22;37815;52.692;6.226;2022-09-01T10:16:59;20.60;75.30
51739;DHT22;37815;52.692;6.226;2022-09-01T10:22:01;20.60;75.60
51739;DHT22;37815;52.692;6.226;2022-09-01T10:27:39;20.90;75.90
51739;DHT22;37815;52.692;6.226;2022-09-01T10:32:39;20.90;76.60
51739;DHT22;37815;52.692;6.226;2022-09-01T10:37:40;21.00;76.20
51739;DHT22;37815;52.692;6.226;2022-09-01T10:42:44;21.00;75.70
51739;DHT22;37815;52.692;6.226;2022-09-01T10:47:46;20.90;75.50
51739;DHT22;37815;52.692;6.226;2022-09-01T10:57:49;20.60;75.40
51739;DHT22;37815;52.692;6.226;2022-09-01T11:08:46;21.00;74.10
51739;DHT22;37815;52.692;6.226;2022-09-01T11:13:59;21.30;72.70
51739;DHT22;37815;52.692;6.226;2022-09-01T11:30:06;21.50;72.40
51739;DHT22;37815;52.692;6.226;2022-09-01T11:35:16;21.70;72.80
51739;DHT22;37815;52.692;6.226;2022-09-01T11:40:36;21.90;73.00
51739;DHT22;37815;52.692;6.226;2022-09-01T11:46:17;21.90;72.90
51739;DHT22;37815;52.692;6.226;2022-09-01T11:51:09;21.80;73.70
51739;DHT22;37815;52.692;6.226;2022-09-01T11:56:25;22.00;73.10
51739;DHT22;37815;52.692;6.226;2022-09-01T12:01:34;21.90;72.50
51739;DHT22;37815;52.692;6.226;2022-09-01T12:06:35;21.80;72.90
51739;DHT22;37815;52.692;6.226;2022-09-01T12:11:40;21.40;72.80
51739;DHT22;37815;52.692;6.226;2022-09-01T12:16:41;21.40;73.40
51739;DHT22;37815;52.692;6.226;2022-09-01T12:21:42;21.60;72.50
51739;DHT22;37815;52.692;6.226;2022-09-01T12:26:55;21.70;72.40
51739;DHT22;37815;52.692;6.226;2022-09-01T12:32:04;21.90;71.60
51739;DHT22;37815;52.692;6.226;2022-09-01T12:52:48;21.90;69.40
51739;DHT22;37815;52.692;6.226;2022-09-01T12:57:58;22.40;69.40
51739;DHT22;37815;52.692;6.226;2022-09-01T13:03:12;22.70;68.10
51739;DHT22;37815;52.692;6.226;2022-09-01T13:08:18;22.70;68.10
51739;DHT22;37815;52.692;6.226;2022-09-01T13:13:20;22.20;68.60
51739;DHT22;37815;52.692;6.226;2022-09-01T13:18:24;22.00;69.50
51739;DHT22;37815;52.692;6.226;2022-09-01T13:23:25;22.20;69.40
51739;DHT22;37815;52.692;6.226;2022-09-01T13:28:26;22.50;68.80
51739;DHT22;37815;52.692;6.226;2022-09-01T13:33:27;22.50;68.10
51739;DHT22;37815;52.692;6.226;2022-09-01T13:38:28;22.20;68.20
51739;DHT22;37815;52.692;6.226;2022-09-01T13:43:29;22.30;68.30
51739;DHT22;37815;52.692;6.226;2022-09-01T13:48:31;22.20;68.00
51739;DHT22;37815;52.692;6.226;2022-09-01T13:53:35;22.20;68.50
51739;DHT22;37815;52.692;6.226;2022-09-01T13:58:35;22.20;68.20
51739;DHT22;37815;52.692;6.226;2022-09-01T14:03:36;22.70;66.60
51739;DHT22;37815;52.692;6.226;2022-09-01T14:08:37;23.20;65.60
51739;DHT22;37815;52.692;6.226;2022-09-01T14:13:37;23.70;64.90
51739;DHT22;37815;52.692;6.226;2022-09-01T14:18:40;24.00;64.80
51739;DHT22;37815;52.692;6.226;2022-09-01T14:23:45;24.00;65.20
51739;DHT22;37815;52.692;6.226;2022-09-01T14:28:46;23.90;65.70
51739;DHT22;37815;52.692;6.226;2022-09-01T14:33:48;23.90;66.20
51739;DHT22;37815;52.692;6.226;2022-09-01T14:38:50;23.90;66.60
51739;DHT22;37815;52.692;6.226;2022-09-01T14:43:51;24.00;67.60
51739;DHT22;37815;52.692;6.226;2022-09-01T14:48:52;24.00;67.20
51739;DHT22;37815;52.692;6.226;2022-09-01T14:53:53;24.00;67.50
51739;DHT22;37815;52.692;6.226;2022-09-01T14:58:54;24.10;67.50
51739;DHT22;37815;52.692;6.226;2022-09-01T15:03:59;24.10;67.60
51739;DHT22;37815;52.692;6.226;2022-09-01T15:09:00;24.20;67.70
51739;DHT22;37815;52.692;6.226;2022-09-01T15:14:02;24.30;67.80
51739;DHT22;37815;52.692;6.226;2022-09-01T15:19:07;24.40;67.90
51739;DHT22;37815;52.692;6.226;2022-09-01T15:24:09;24.50;68.00
51739;DHT22;37815;52.692;6.226;2022-09-01T15:29:10;24.50;67.90
51739;DHT22;37815;52.692;6.226;2022-09-01T15:34:12;24.60;68.00
51739;DHT22;37815;52.692;6.226;2022-09-01T15:39:13;24.70;68.10
51739;DHT22;37815;52.692;6.226;2022-09-01T15:44:14;24.80;68.30
51739;DHT22;37815;52.692;6.226;2022-09-01T15:49:14;24.80;68.30
51739;DHT22;37815;52.692;6.226;2022-09-01T15:54:19;24.80;68.50
51739;DHT22;37815;52.692;6.226;2022-09-01T15:59:20;24.70;68.80
51739;DHT22;37815;52.692;6.226;2022-09-01T16:04:21;24.60;69.10
51739;DHT22;37815;52.692;6.226;2022-09-01T16:09:23;24.50;69.50
51739;DHT22;37815;52.692;6.226;2022-09-01T16:14:25;24.40;69.80
51739;DHT22;37815;52.692;6.226;2022-09-01T16:19:48;24.30;70.20
51739;DHT22;37815;52.692;6.226;2022-09-01T16:24:54;24.20;70.50
51739;DHT22;37815;52.692;6.226;2022-09-01T16:30:09;24.20;70.70
51739;DHT22;37815;52.692;6.226;2022-09-01T16:35:10;24.10;71.00
51739;DHT22;37815;52.692;6.226;2022-09-01T17:01:27;23.80;71.50
51739;DHT22;37815;52.692;6.226;2022-09-01T17:17:14;23.60;71.90
51739;DHT22;37815;52.692;6.226;2022-09-01T17:22:19;23.60;72.20
51739;DHT22;37815;52.692;6.226;2022-09-01T17:27:25;23.50;72.30
51739;DHT22;37815;52.692;6.226;2022-09-01T17:37:58;23.40;72.30
51739;DHT22;37815;52.692;6.226;2022-09-01T17:43:13;23.40;72.60
51739;DHT22;37815;52.692;6.226;2022-09-01T17:48:20;23.30;73.00
51739;DHT22;37815;52.692;6.226;2022-09-01T17:58:52;23.20;73.40
51739;DHT22;37815;52.692;6.226;2022-09-01T18:04:11;23.10;73.40
51739;DHT22;37815;52.692;6.226;2022-09-01T18:09:14;23.00;73.40
51739;DHT22;37815;52.692;6.226;2022-09-01T18:14:40;23.00;73.40
51739;DHT22;37815;52.692;6.226;2022-09-01T18:19:44;22.90;73.30
51739;DHT22;37815;52.692;6.226;2022-09-01T18:29:51;22.80;73.40
51739;DHT22;37815;52.692;6.226;2022-09-01T18:40:22;22.80;73.50
51739;DHT22;37815;52.692;6.226;2022-09-01T18:45:48;22.70;73.40
51739;DHT22;37815;52.692;6.226;2022-09-01T18:51:53;22.70;73.40
51739;DHT22;37815;52.692;6.226;2022-09-01T18:56:51;22.60;73.40
51739;DHT22;37815;52.692;6.226;2022-09-01T19:07:36;22.50;73.40
51739;DHT22;37815;52.692;6.226;2022-09-01T19:12:52;22.50;73.40
51739;DHT22;37815;52.692;6.226;2022-09-01T19:23:43;22.40;73.50
51739;DHT22;37815;52.692;6.226;2022-09-01T19:29:05;22.30;73.30
51739;DHT22;37815;52.692;6.226;2022-09-01T19:34:44;22.30;73.30
51739;DHT22;37815;52.692;6.226;2022-09-01T19:39:47;22.20;73.10
51739;DHT22;37815;52.692;6.226;2022-09-01T19:45:23;22.10;73.30
51739;DHT22;37815;52.692;6.226;2022-09-01T19:50:29;22.10;73.10
51739;DHT22;37815;52.692;6.226;2022-09-01T19:56:02;22.10;73.20
51739;DHT22;37815;52.692;6.226;2022-09-01T20:01:09;22.00;73.00
51739;DHT22;37815;52.692;6.226;2022-09-01T20:06:41;22.00;73.10
51739;DHT22;37815;52.692;6.226;2022-09-01T20:11:55;21.90;72.70
51739;DHT22;37815;52.692;6.226;2022-09-01T20:17:01;21.90;73.00
51739;DHT22;37815;52.692;6.226;2022-09-01T20:22:28;21.90;73.00
51739;DHT22;37815;52.692;6.226;2022-09-01T20:27:39;21.80;72.70
51739;DHT22;37815;52.692;6.226;2022-09-01T20:33:02;21.80;72.80
51739;DHT22;37815;52.692;6.226;2022-09-01T20:38:35;21.70;72.70
51739;DHT22;37815;52.692;6.226;2022-09-01T20:43:56;21.70;72.40
51739;DHT22;37815;52.692;6.226;2022-09-01T20:48:57;21.60;72.70
51739;DHT22;37815;52.692;6.226;2022-09-01T21:09:56;21.50;72.30
51739;DHT22;37815;52.692;6.226;2022-09-01T21:25:44;21.50;72.30
51739;DHT22;37815;52.692;6.226;2022-09-01T21:30:46;21.30;72.30
51739;DHT22;37815;52.692;6.226;2022-09-01T21:35:50;21.30;72.20
51739;DHT22;37815;52.692;6.226;2022-09-01T21:40:51;21.30;72.20
51739;DHT22;37815;52.692;6.226;2022-09-01T21:45:52;21.20;72.10
51739;DHT22;37815;52.692;6.226;2022-09-01T21:50:53;21.20;72.20
51739;DHT22;37815;52.692;6.226;2022-09-01T21:55:54;21.10;72.00
51739;DHT22;37815;52.692;6.226;2022-09-01T22:00:55;21.10;72.00
51739;DHT22;37815;52.692;6.226;2022-09-01T22:05:57;21.10;71.90
51739;DHT22;37815;52.692;6.226;2022-09-01T22:10:59;21.00;71.80
51739;DHT22;37815;52.692;6.226;2022-09-01T22:16:00;21.00;71.70
51739;DHT22;37815;52.692;6.226;2022-09-01T22:21:04;21.00;71.70
51739;DHT22;37815;52.692;6.226;2022-09-01T22:26:05;21.00;71.60
51739;DHT22;37815;52.692;6.226;2022-09-01T22:31:06;20.90;71.60
51739;DHT22;37815;52.692;6.226;2022-09-01T22:36:21;20.80;71.50
51739;DHT22;37815;52.692;6.226;2022-09-01T22:41:24;20.80;71.30
51739;DHT22;37815;52.692;6.226;2022-09-01T22:46:26;20.80;71.40
51739;DHT22;37815;52.692;6.226;2022-09-01T22:51:28;20.80;71.40
51739;DHT22;37815;52.692;6.226;2022-09-01T22:56:31;20.70;71.30
51739;DHT22;37815;52.692;6.226;2022-09-01T23:01:35;20.70;71.30
51739;DHT22;37815;52.692;6.226;2022-09-01T23:06:39;20.60;71.30
51739;DHT22;37815;52.692;6.226;2022-09-01T23:11:40;20.60;71.20
51739;DHT22;37815;52.692;6.226;2022-09-01T23:16:42;20.60;71.20
51739;DHT22;37815;52.692;6.226;2022-09-01T23:21:42;20.60;71.20
51739;DHT22;37815;52.692;6.226;2022-09-01T23:26:43;20.50;71.10
51739;DHT22;37815;52.692;6.226;2022-09-01T23:31:44;20.50;71.10
51739;DHT22;37815;52.692;6.226;2022-09-01T23:36:45;20.50;71.10
51739;DHT22;37815;52.692;6.226;2022-09-01T23:41:46;20.40;71.00
51739;DHT22;37815;52.692;6.226;2022-09-01T23:46:47;20.40;71.00
51739;DHT22;37815;52.692;6.226;2022-09-01T23:51:48;20.40;71.60
51739;DHT22;37815;52.692;6.226;2022-09-01T23:56:48;20.40;71.00
